Pagrindinis puslapis
METAR-TAF:

METAR-TAF

Oro uostai :

Sinop, Turkija

platuma: 42-00-57N, ilguma: 035-03-59E, Aukštis: 7 m

Dabartinis oras

Ataskaita buvo paskelbta 26 minutes, ne 09:50 UTC
Vėjas 9 kt iš Rytų/Pietryčių
Temperatūra 16°C
Drėgmė 59%
Slėgis 1024 hPa
Matomumas 10 km arba daugiau
Mažai debesys ne aukštis 3500 ft

METAR: LTCM 270950Z 11009KT 9999 FEW035 16/08 Q1024

Laikas: 13:16 (10:16 UTC)

Prognozė

Ataskaita buvo paskelbta 2 valandos ir 36 minutes, ne 07:40 UTC
Prognozė galioja nuo 27 metu 09 UTC su 27 metu 18 UTC
Vėjas 14 kt iš Rytų/Pietryčių
Matomumas 10 km arba daugiau
Mažai debesys ne aukštis 3600 ft
Tapsmas
nuo 27 metu 15 UTC su 27 metu 16 UTC
Su prošvaistėmis ne aukštis 2800 ft

TAF: LTCM 270740Z 2709/2718 11014KT 9999 FEW036 BECMG 2715/2716 BKN028

Orai ataskaitas ir orų prognozės (METAR, TAF).

turimą stotys yra geltonos ir raudonos taškus žemėlapyje.

Perkelti pele per norėdami pamatyti stoties vardą.

Tada spustelėkite, norėdami matyti oro stebėjimo ir prognozės.

Norėdami pakeisti žemėlapį: spustelėkite ant žalios mygtukų su juodo kryžiaus žemyn,; žalią mygtuką su brūkšneliu, jei norite nutolinti; arba žalių rodyklių gretimoms žemėlapius.


METAR-TAF: